createdAt,value
2022-10-12T00:01:54.839Z,27.85
2022-10-12T00:04:22.563Z,27.35
2022-10-12T00:06:50.182Z,28.40
2022-10-12T00:09:17.855Z,27.70
2022-10-12T00:11:45.482Z,27.23
2022-10-12T00:14:14.592Z,29.40
2022-10-12T00:16:42.201Z,29.83
2022-10-12T00:19:14.196Z,29.52
2022-10-12T00:21:41.854Z,31.95
2022-10-12T00:24:10.884Z,30.95
2022-10-12T00:26:38.554Z,32.25
2022-10-12T00:29:06.250Z,32.28
2022-10-12T00:31:35.327Z,31.77
2022-10-12T00:34:04.773Z,33.50
2022-10-12T00:36:35.664Z,33.70
2022-10-12T00:39:06.583Z,36.25
2022-10-12T00:41:38.338Z,36.90
2022-10-12T00:44:36.388Z,36.63
2022-10-12T00:47:10.044Z,32.58
2022-10-12T00:49:38.207Z,34.17
2022-10-12T00:52:10.862Z,34.03
2022-10-12T00:54:42.808Z,36.83
2022-10-12T00:57:12.626Z,35.35
2022-10-12T00:59:45.372Z,34.30
2022-10-12T01:02:15.192Z,34.35
2022-10-12T01:04:43.515Z,33.30
2022-10-12T01:07:11.573Z,35.10
2022-10-12T01:09:39.255Z,31.17
2022-10-12T01:12:09.230Z,33.50
2022-10-12T01:14:37.151Z,33.97
2022-10-12T01:17:14.725Z,32.95
2022-10-12T01:20:23.034Z,33.33
2022-10-12T01:23:05.367Z,33.28
2022-10-12T01:25:43.186Z,33.20
2022-10-12T01:28:20.314Z,32.70
2022-10-12T01:30:58.225Z,32.80
2022-10-12T01:33:33.787Z,32.45
2022-10-12T01:38:42.615Z,31.63
2022-10-12T01:41:17.110Z,33.13
2022-10-12T01:43:46.739Z,36.42
2022-10-12T01:46:47.346Z,36.40
2022-10-12T01:49:18.097Z,34.40
2022-10-12T01:51:59.497Z,35.55
2022-10-12T01:54:35.690Z,35.88
2022-10-12T01:57:09.212Z,32.05
2022-10-12T01:59:48.047Z,33.85
2022-10-12T02:02:27.082Z,33.63
2022-10-12T02:05:03.725Z,34.38
2022-10-12T02:07:42.280Z,33.58
2022-10-12T02:10:16.675Z,37.50
2022-10-12T02:12:46.872Z,36.72
2022-10-12T02:15:16.503Z,35.53
2022-10-12T02:17:49.026Z,35.83
2022-10-12T02:20:19.342Z,40.72
2022-10-12T02:22:49.803Z,41.20
2022-10-12T02:25:21.666Z,39.25
2022-10-12T02:27:53.598Z,37.30
2022-10-12T02:30:21.489Z,39.85
2022-10-12T02:32:55.368Z,41.22
2022-10-12T02:35:28.942Z,40.88
2022-10-12T02:38:02.362Z,40.22
2022-10-12T02:40:35.628Z,40.13
2022-10-12T02:43:11.142Z,38.53
2022-10-12T02:45:42.532Z,39.22
2022-10-12T02:48:14.819Z,41.60
2022-10-12T02:50:42.897Z,41.47
2022-10-12T02:53:12.612Z,42.42
2022-10-12T02:55:48.858Z,43.30
2022-10-12T02:58:17.127Z,40.75
2022-10-12T03:00:44.772Z,45.38
2022-10-12T03:03:14.152Z,44.28
2022-10-12T03:05:41.799Z,43.17
2022-10-12T03:08:09.441Z,44.65
2022-10-12T03:10:37.084Z,43.05
2022-10-12T03:13:05.161Z,45.40
2022-10-12T03:15:32.794Z,41.42
2022-10-12T03:18:00.697Z,42.78
2022-10-12T03:20:29.721Z,44.42
2022-10-12T03:22:57.421Z,50.83
2022-10-12T03:25:25.185Z,46.28
2022-10-12T03:27:52.848Z,49.67
2022-10-12T03:30:20.559Z,47.70
2022-10-12T03:32:48.429Z,52.08
2022-10-12T03:35:17.634Z,49.42
2022-10-12T03:37:46.660Z,51.17
2022-10-12T03:40:14.413Z,49.88
2022-10-12T03:42:42.030Z,47.53
2022-10-12T03:45:10.383Z,46.70
2022-10-12T03:47:38.516Z,54.30
2022-10-12T03:50:07.202Z,50.17
2022-10-12T03:52:35.038Z,54.25
2022-10-12T03:55:04.143Z,51.38
2022-10-12T03:57:31.784Z,50.00
2022-10-12T03:59:59.471Z,53.50
2022-10-12T04:02:27.127Z,52.67
2022-10-12T04:04:54.900Z,56.25
2022-10-12T04:07:22.568Z,50.05
2022-10-12T04:09:50.628Z,53.38
2022-10-12T04:12:19.631Z,51.83
2022-10-12T04:14:47.292Z,52.08
2022-10-12T04:17:16.175Z,52.20
2022-10-12T04:19:44.123Z,54.63
2022-10-12T04:22:12.152Z,52.25
2022-10-12T04:24:39.849Z,52.78
2022-10-12T04:27:07.558Z,53.45
2022-10-12T04:29:37.141Z,53.42
2022-10-12T04:32:08.779Z,51.83
2022-10-12T04:34:39.219Z,51.03
2022-10-12T04:37:06.970Z,49.67
2022-10-12T04:39:34.647Z,46.60
2022-10-12T04:42:02.354Z,50.83
2022-10-12T04:44:32.379Z,50.33
2022-10-12T04:47:01.609Z,49.95
2022-10-12T04:49:29.483Z,50.70
2022-10-12T04:51:57.096Z,50.20
2022-10-12T04:54:24.801Z,50.45
2022-10-12T04:56:52.404Z,53.40
2022-10-12T04:59:20.136Z,53.63
2022-10-12T05:01:47.803Z,55.92
2022-10-12T05:04:16.882Z,52.90
2022-10-12T05:06:44.546Z,52.97
2022-10-12T05:09:14.592Z,54.78
2022-10-12T05:11:44.613Z,54.08
2022-10-12T05:14:12.456Z,54.42
2022-10-12T05:16:40.151Z,55.03
2022-10-12T05:19:07.845Z,55.08
2022-10-12T05:21:37.089Z,53.55
2022-10-12T05:24:05.111Z,53.20
2022-10-12T05:26:32.769Z,50.33
2022-10-12T05:29:00.528Z,48.97
2022-10-12T05:31:28.243Z,49.42
2022-10-12T05:33:55.871Z,49.15
2022-10-12T05:36:23.529Z,48.40
2022-10-12T05:38:52.667Z,48.63
2022-10-12T05:41:20.344Z,46.85
2022-10-12T05:43:48.032Z,45.40
2022-10-12T05:46:15.681Z,49.65
2022-10-12T05:48:43.385Z,48.30
2022-10-12T05:51:11.117Z,46.95
2022-10-12T05:53:38.833Z,48.72
2022-10-12T05:56:08.219Z,46.22
2022-10-12T05:58:35.927Z,50.30
2022-10-12T06:01:07.901Z,48.70
2022-10-12T06:03:35.918Z,55.38
2022-10-12T06:06:04.523Z,54.45
2022-10-12T06:08:32.707Z,54.83
2022-10-12T06:11:00.553Z,52.33
2022-10-12T06:13:29.628Z,50.65
2022-10-12T06:15:58.085Z,51.28
2022-10-12T06:18:25.853Z,51.92
2022-10-12T06:21:21.023Z,51.28
2022-10-12T06:23:43.081Z,45.40
2022-10-12T06:26:10.726Z,47.20
2022-10-12T06:28:39.794Z,45.90
2022-10-12T06:31:07.549Z,45.75
2022-10-12T06:33:35.239Z,44.53
2022-10-12T06:36:03.077Z,43.63
2022-10-12T06:38:30.747Z,43.10
2022-10-12T06:40:58.383Z,42.95
2022-10-12T06:43:26.168Z,41.70
2022-10-12T06:46:00.156Z,42.72
2022-10-12T06:48:27.834Z,41.45
2022-10-12T06:50:55.707Z,42.25
2022-10-12T06:53:23.691Z,39.30
2022-10-12T06:55:51.341Z,35.67
2022-10-12T06:58:19.877Z,39.88
2022-10-12T07:00:47.548Z,39.10
2022-10-12T07:03:17.947Z,39.05
2022-10-12T07:05:45.730Z,37.75
2022-10-12T07:08:13.447Z,38.20
2022-10-12T07:10:41.146Z,37.15
2022-10-12T07:13:09.052Z,37.25
2022-10-12T07:15:36.715Z,37.35
2022-10-12T07:18:04.742Z,36.25
2022-10-12T07:20:33.808Z,39.60
2022-10-12T07:23:01.490Z,36.47
2022-10-12T07:25:29.222Z,39.70
2022-10-12T07:27:56.903Z,37.55
2022-10-12T07:30:24.652Z,40.38
2022-10-12T07:32:54.802Z,38.63
2022-10-12T07:35:22.524Z,36.05
2022-10-12T07:37:51.578Z,38.63
2022-10-12T07:40:19.273Z,36.00
2022-10-12T07:43:11.937Z,32.10
2022-10-12T07:45:34.632Z,32.97
2022-10-12T07:48:02.289Z,31.80
2022-10-12T07:50:29.995Z,33.90
2022-10-12T07:52:59.099Z,34.20
2022-10-12T07:55:26.880Z,30.25
2022-10-12T07:57:54.577Z,32.25
2022-10-12T08:00:22.373Z,32.47
2022-10-12T08:02:50.082Z,30.33
2022-10-12T08:05:21.108Z,30.48
2022-10-12T08:07:49.037Z,30.83
2022-10-12T08:10:18.969Z,28.08
2022-10-12T08:12:51.172Z,31.45
2022-10-12T08:15:20.102Z,33.45
2022-10-12T08:17:47.764Z,33.72
2022-10-12T08:20:15.639Z,33.08
2022-10-12T08:22:43.356Z,31.88
2022-10-12T08:25:11.150Z,29.42
2022-10-12T08:27:40.480Z,32.70
2022-10-12T08:30:09.474Z,31.45
2022-10-12T08:32:37.182Z,31.58
2022-10-12T08:35:05.435Z,33.28
2022-10-12T08:37:33.109Z,33.95
2022-10-12T08:40:03.370Z,31.05
2022-10-12T08:42:42.298Z,30.63
2022-10-12T08:45:30.607Z,31.38
2022-10-12T08:48:01.591Z,28.98
2022-10-12T08:50:33.965Z,26.75
2022-10-12T08:53:07.740Z,27.13
2022-10-12T08:55:40.702Z,26.77
2022-10-12T08:58:16.861Z,27.05
2022-10-12T09:00:49.944Z,25.40
2022-10-12T09:03:31.220Z,23.92
2022-10-12T09:06:08.968Z,25.27
2022-10-12T09:09:00.587Z,24.27
2022-10-12T09:11:40.591Z,22.63
2022-10-12T09:14:11.818Z,24.52
2022-10-12T09:16:45.176Z,26.58
2022-10-12T09:19:18.967Z,28.45
2022-10-12T09:21:49.509Z,29.25
2022-10-12T09:24:20.103Z,33.17
2022-10-12T09:26:51.530Z,32.80
2022-10-12T09:29:31.105Z,33.17
2022-10-12T09:32:24.946Z,31.10
2022-10-12T09:34:52.690Z,30.83
2022-10-12T09:37:22.727Z,32.08
2022-10-12T09:39:50.979Z,31.25
2022-10-12T09:42:18.674Z,29.38
2022-10-12T09:44:51.349Z,31.58
2022-10-12T09:47:29.779Z,32.25
2022-10-12T09:49:59.322Z,33.85
2022-10-12T09:52:30.886Z,32.92
2022-10-12T09:55:03.815Z,30.65
2022-10-12T09:57:35.210Z,32.73
2022-10-12T10:00:06.421Z,30.70
2022-10-12T10:02:49.427Z,31.52
2022-10-12T10:05:26.070Z,34.25
2022-10-12T10:07:54.403Z,31.85
2022-10-12T10:10:29.662Z,31.85
2022-10-12T10:13:01.274Z,30.40
2022-10-12T10:15:32.667Z,28.52
2022-10-12T10:18:03.961Z,28.05
2022-10-12T10:20:34.218Z,27.85
2022-10-12T10:23:04.704Z,25.05
2022-10-12T10:25:33.240Z,27.33
2022-10-12T10:28:21.439Z,24.73
2022-10-12T10:30:57.852Z,25.45
2022-10-12T10:33:27.468Z,23.40
2022-10-12T10:36:05.157Z,19.10
2022-10-12T10:38:46.014Z,19.33
2022-10-12T10:41:18.027Z,19.65
2022-10-12T10:43:48.302Z,20.33
2022-10-12T10:46:23.490Z,17.83
2022-10-12T10:48:56.504Z,19.02
2022-10-12T10:51:24.180Z,18.83
2022-10-12T10:53:52.502Z,17.00
2022-10-12T10:56:24.388Z,15.38
2022-10-12T10:58:56.320Z,14.30
2022-10-12T11:01:32.420Z,16.35
2022-10-12T11:04:04.435Z,13.32
2022-10-12T11:06:39.128Z,12.30
2022-10-12T11:09:12.007Z,13.40
2022-10-12T11:11:41.505Z,13.38
2022-10-12T11:14:16.078Z,11.02
2022-10-12T11:16:49.782Z,12.13
2022-10-12T11:19:36.622Z,11.52
2022-10-12T11:22:07.533Z,14.55
2022-10-12T11:24:42.992Z,13.57
2022-10-12T11:27:16.620Z,12.68
2022-10-12T11:29:44.631Z,12.13
2022-10-12T11:32:26.915Z,13.75
2022-10-12T11:34:59.269Z,12.38
2022-10-12T11:37:34.016Z,13.45
2022-10-12T11:40:03.990Z,14.50
2022-10-12T11:42:43.243Z,13.75
2022-10-12T11:45:21.804Z,13.65
2022-10-12T11:47:52.692Z,14.35
2022-10-12T11:50:30.443Z,14.18
2022-10-12T11:53:02.155Z,14.32
2022-10-12T11:55:55.629Z,14.65
2022-10-12T11:58:42.301Z,14.13
2022-10-12T12:01:44.502Z,13.93
2022-10-12T12:04:40.457Z,16.05
2022-10-12T12:07:47.330Z,14.38
2022-10-12T12:11:03.659Z,15.20
2022-10-12T12:13:31.967Z,14.20
2022-10-12T12:16:36.711Z,14.43
2022-10-12T12:19:26.633Z,14.90
2022-10-12T12:27:29.635Z,15.52
2022-10-12T12:29:58.744Z,15.13
2022-10-12T12:32:27.965Z,14.75
2022-10-12T12:35:00.625Z,17.13
2022-10-12T12:37:35.591Z,14.88
2022-10-12T12:40:05.656Z,15.68
2022-10-12T12:42:35.381Z,15.50
2022-10-12T12:45:36.312Z,15.52
2022-10-12T12:50:36.670Z,14.93
2022-10-12T12:53:09.519Z,15.80
2022-10-12T12:55:51.058Z,15.25
2022-10-12T12:58:39.204Z,15.68
2022-10-12T13:01:25.918Z,20.70
2022-10-12T13:04:30.178Z,16.38
2022-10-12T13:07:27.020Z,14.93
2022-10-12T13:10:25.568Z,16.30
2022-10-12T13:13:20.514Z,15.38
2022-10-12T13:16:03.011Z,15.52
2022-10-12T13:18:50.681Z,16.08
2022-10-12T13:21:21.370Z,15.07
2022-10-12T13:23:51.355Z,15.40
2022-10-12T13:26:24.482Z,16.50
2022-10-12T13:28:55.190Z,16.33
2022-10-12T13:31:27.181Z,14.80
2022-10-12T13:34:02.146Z,16.10
2022-10-12T13:36:32.779Z,15.82
2022-10-12T13:39:08.621Z,16.35
2022-10-12T13:41:36.878Z,15.10
2022-10-12T13:44:07.978Z,17.27
2022-10-12T13:46:40.729Z,13.68
2022-10-12T13:49:16.738Z,14.43
2022-10-12T13:51:45.836Z,17.90
2022-10-12T13:54:19.856Z,17.63
2022-10-12T13:56:51.275Z,17.70
2022-10-12T13:59:23.383Z,17.77
2022-10-12T14:01:54.029Z,18.67
2022-10-12T14:04:21.900Z,16.30
2022-10-12T14:06:57.518Z,15.57
2022-10-12T14:11:55.939Z,17.98
2022-10-12T14:14:32.226Z,16.77
2022-10-12T14:17:00.122Z,17.10
2022-10-12T14:19:37.249Z,16.58
2022-10-12T14:22:05.311Z,15.82
2022-10-12T14:24:35.788Z,16.67
2022-10-12T14:27:06.362Z,18.52
2022-10-12T14:29:41.365Z,18.42
2022-10-12T14:32:37.644Z,17.90
2022-10-12T14:35:12.486Z,17.90
2022-10-12T14:37:40.657Z,17.65
2022-10-12T14:40:29.869Z,17.95
2022-10-12T14:43:04.743Z,16.05
2022-10-12T14:45:34.140Z,19.55
2022-10-12T14:48:03.172Z,18.50
2022-10-12T14:50:32.323Z,16.75
2022-10-12T14:53:03.757Z,17.33
2022-10-12T14:55:34.076Z,16.13
2022-10-12T14:58:01.929Z,17.88
2022-10-12T15:00:31.911Z,17.08
2022-10-12T15:03:03.263Z,17.73
2022-10-12T15:05:33.567Z,18.73
2022-10-12T15:08:07.436Z,18.45
2022-10-12T15:10:36.453Z,17.70
2022-10-12T15:13:04.415Z,19.90
2022-10-12T15:15:37.249Z,19.95
2022-10-12T15:18:06.648Z,20.15
2022-10-12T15:20:35.149Z,19.75
2022-10-12T15:23:03.720Z,19.90
2022-10-12T15:25:40.030Z,17.77
2022-10-12T15:28:07.820Z,20.30
2022-10-12T15:30:52.115Z,18.50
2022-10-12T15:33:25.612Z,22.17
2022-10-12T15:35:53.470Z,21.95
2022-10-12T15:38:21.168Z,20.05
2022-10-12T15:40:51.060Z,20.80
2022-10-12T15:43:18.895Z,18.17
2022-10-12T15:45:46.789Z,18.92
2022-10-12T15:48:14.783Z,20.60
2022-10-12T15:50:46.242Z,19.45
2022-10-12T15:53:16.930Z,21.40
2022-10-12T15:55:44.852Z,19.63
2022-10-12T15:58:12.646Z,19.73
2022-10-12T16:00:40.621Z,19.88
2022-10-12T16:03:08.644Z,18.98
2022-10-12T16:05:38.330Z,18.70
2022-10-12T16:08:07.949Z,19.15
2022-10-12T16:10:39.430Z,18.35
2022-10-12T16:13:09.106Z,19.80
2022-10-12T16:15:37.348Z,18.30
2022-10-12T16:18:06.950Z,17.85
2022-10-12T16:20:37.763Z,19.08
2022-10-12T16:23:08.479Z,19.05
2022-10-12T16:25:36.852Z,19.75
2022-10-12T16:28:05.031Z,17.83
2022-10-12T16:30:33.306Z,19.17
2022-10-12T16:33:01.132Z,19.98
2022-10-12T16:35:29.199Z,19.75
2022-10-12T16:37:56.956Z,18.33
2022-10-12T16:40:26.190Z,18.77
2022-10-12T16:42:54.926Z,18.65
2022-10-12T16:45:23.165Z,18.70
2022-10-12T16:47:51.426Z,17.75
2022-10-12T16:50:19.731Z,18.25
2022-10-12T16:52:48.164Z,17.52
2022-10-12T16:55:16.678Z,18.92
2022-10-12T16:57:45.840Z,17.25
2022-10-12T17:00:17.242Z,18.40
2022-10-12T17:02:44.949Z,18.38
2022-10-12T17:05:14.610Z,18.52
2022-10-12T17:07:42.289Z,18.95
2022-10-12T17:10:10.748Z,16.05
2022-10-12T17:12:38.494Z,17.20
2022-10-12T17:15:08.772Z,16.60
2022-10-12T17:17:36.608Z,17.25
2022-10-12T17:20:04.874Z,16.95
2022-10-12T17:22:32.654Z,17.13
2022-10-12T17:25:00.457Z,16.80
2022-10-12T17:27:32.092Z,16.35
2022-10-12T17:30:00.454Z,16.92
2022-10-12T17:32:29.611Z,16.17
2022-10-12T17:34:57.285Z,15.48
2022-10-12T17:37:25.034Z,15.98
2022-10-12T17:39:52.869Z,15.70
2022-10-12T17:42:23.011Z,16.80
2022-10-12T17:44:50.872Z,18.05
2022-10-12T17:47:19.736Z,16.10
2022-10-12T17:49:49.083Z,16.83
2022-10-12T17:52:17.217Z,16.50
2022-10-12T17:54:45.243Z,15.98
2022-10-12T17:57:13.326Z,17.33
2022-10-12T17:59:41.175Z,16.77
2022-10-12T18:02:09.749Z,16.05
2022-10-12T18:04:37.637Z,15.52
2022-10-12T18:07:07.368Z,15.25
2022-10-12T18:09:35.225Z,14.93
2022-10-12T18:12:03.054Z,16.05
2022-10-12T18:14:30.770Z,16.77
2022-10-12T18:16:58.839Z,16.55
2022-10-12T18:19:26.679Z,15.90
2022-10-12T18:21:54.364Z,15.57
2022-10-12T18:24:23.423Z,16.52
2022-10-12T18:26:51.913Z,15.50
2022-10-12T18:29:19.822Z,16.65
2022-10-12T18:31:47.749Z,16.00
2022-10-12T18:34:15.594Z,14.98
2022-10-12T18:36:43.338Z,15.30
2022-10-12T18:39:11.150Z,15.43
2022-10-12T18:41:40.301Z,15.25
2022-10-12T18:44:09.130Z,15.30
2022-10-12T18:46:37.526Z,15.27
2022-10-12T18:49:08.038Z,15.38
2022-10-12T18:51:37.780Z,15.15
2022-10-12T18:54:06.134Z,15.68
2022-10-12T18:56:36.614Z,16.02
2022-10-12T18:59:06.018Z,16.02
2022-10-12T19:01:34.641Z,15.05
2022-10-12T19:04:03.249Z,15.30
2022-10-12T19:06:33.214Z,16.77
2022-10-12T19:09:01.861Z,16.23
2022-10-12T19:11:31.022Z,15.80
2022-10-12T19:14:00.584Z,15.65
2022-10-12T19:16:31.517Z,14.85
2022-10-12T19:19:01.692Z,16.25
2022-10-12T19:21:30.081Z,16.02
2022-10-12T19:23:58.267Z,16.38
2022-10-12T19:26:28.361Z,15.93
2022-10-12T19:28:57.453Z,15.00
2022-10-12T19:31:27.595Z,16.65
2022-10-12T19:33:58.332Z,15.63
2022-10-12T19:36:27.653Z,16.05
2022-10-12T19:38:56.729Z,16.02
2022-10-12T19:41:24.671Z,15.18
2022-10-12T19:43:53.225Z,16.48
2022-10-12T19:46:21.651Z,17.45
2022-10-12T19:48:50.925Z,16.42
2022-10-12T19:51:21.384Z,15.63
2022-10-12T19:53:49.583Z,16.65
2022-10-12T19:56:20.862Z,16.02
2022-10-12T19:58:50.435Z,15.40
2022-10-12T20:01:20.775Z,15.98
2022-10-12T20:03:50.683Z,15.48
2022-10-12T20:06:20.954Z,17.00
2022-10-12T20:08:49.654Z,16.20
2022-10-12T20:11:21.553Z,16.48
2022-10-12T20:13:52.371Z,15.57
2022-10-12T20:16:20.993Z,16.38
2022-10-12T20:18:49.628Z,16.27
2022-10-12T20:21:19.526Z,16.73
2022-10-12T20:23:49.405Z,16.75
2022-10-12T20:26:19.239Z,15.77
2022-10-12T20:28:47.481Z,16.40
2022-10-12T20:31:15.344Z,15.13
2022-10-12T20:33:43.391Z,17.40
2022-10-12T20:36:13.009Z,15.43
2022-10-12T20:38:40.885Z,16.67
2022-10-12T20:41:12.351Z,16.20
2022-10-12T20:43:44.131Z,17.10
2022-10-12T20:46:14.305Z,17.02
2022-10-12T20:48:42.518Z,16.40
2022-10-12T20:51:14.165Z,16.67
2022-10-12T20:53:42.164Z,15.48
2022-10-12T20:56:11.895Z,15.90
2022-10-12T20:58:39.718Z,16.45
2022-10-12T21:01:09.484Z,15.02
2022-10-12T21:03:37.875Z,15.73
2022-10-12T21:06:07.283Z,16.58
2022-10-12T21:08:35.653Z,18.08
2022-10-12T21:11:03.817Z,16.10
2022-10-12T21:13:34.163Z,15.45
2022-10-12T21:16:01.901Z,14.50
2022-10-12T21:18:34.005Z,16.13
2022-10-12T21:21:05.035Z,15.73
2022-10-12T21:23:32.938Z,16.42
2022-10-12T21:26:00.669Z,16.75
2022-10-12T21:28:28.488Z,15.27
2022-10-12T21:30:59.545Z,15.23
2022-10-12T21:33:28.346Z,16.88
2022-10-12T21:35:56.053Z,16.83
2022-10-12T21:38:24.060Z,15.82
2022-10-12T21:40:52.340Z,18.23
2022-10-12T21:43:20.144Z,17.45
2022-10-12T21:45:47.925Z,16.27
2022-10-12T21:48:16.993Z,16.23
2022-10-12T21:50:44.789Z,15.68
2022-10-12T21:53:13.701Z,16.75
2022-10-12T21:55:41.448Z,15.82
2022-10-12T21:58:09.149Z,15.40
2022-10-12T22:00:36.928Z,16.73
2022-10-12T22:03:04.786Z,15.98
2022-10-12T22:05:39.775Z,15.75
2022-10-12T22:08:07.830Z,17.10
2022-10-12T22:10:36.316Z,16.23
2022-10-12T22:13:04.084Z,15.00
2022-10-12T22:15:31.793Z,16.33
2022-10-12T22:18:00.627Z,15.40
2022-10-12T22:20:28.332Z,15.35
2022-10-12T22:22:57.551Z,16.33
2022-10-12T22:25:25.227Z,15.48
2022-10-12T22:27:52.967Z,14.63
2022-10-12T22:30:20.668Z,14.80
2022-10-12T22:32:48.653Z,14.70
2022-10-12T22:35:16.445Z,15.38
2022-10-12T22:37:44.128Z,15.75
2022-10-12T22:40:13.783Z,15.32
2022-10-12T22:42:41.527Z,15.25
2022-10-12T22:45:10.367Z,14.98
2022-10-12T22:47:38.048Z,15.48
2022-10-12T22:50:06.440Z,15.50
2022-10-12T22:52:34.504Z,16.83
2022-10-12T22:55:02.349Z,15.65
2022-10-12T22:57:32.298Z,16.45
2022-10-12T23:07:38.378Z,15.73
2022-10-12T23:10:06.849Z,16.80
2022-10-12T23:12:34.547Z,17.65
2022-10-12T23:15:02.262Z,17.77
2022-10-12T23:17:29.924Z,18.50
2022-10-12T23:19:57.686Z,17.30
2022-10-12T23:22:26.773Z,17.27
2022-10-12T23:24:54.553Z,17.42
2022-10-12T23:27:22.446Z,17.38
2022-10-12T23:29:50.462Z,17.00
2022-10-12T23:32:18.710Z,18.08
2022-10-12T23:34:46.677Z,18.08
2022-10-12T23:37:14.362Z,18.02
2022-10-12T23:39:43.416Z,19.67
2022-10-12T23:42:11.122Z,16.38
2022-10-12T23:44:38.794Z,16.92
2022-10-12T23:47:06.582Z,16.90
2022-10-12T23:49:34.233Z,16.80
2022-10-12T23:52:01.956Z,16.55
2022-10-12T23:54:29.651Z,16.55
2022-10-12T23:56:58.676Z,15.32
2022-10-12T23:59:26.479Z,17.35
